Weather observations for the past three days for
Branson
Imperial (Metric)
Date Time (cdt) Wind (mph) Vis. (mi.) Weather Sky Cond. Temperature (ºF) Relative Humidity Wind Chill (°F) Heat Index (°F) Pressure Precipitation (in)
Air Dwpt 6 hour altimeter (in) sea level (mb) 1 hr 3 hr 6 hr
Max. Min.
10 13:45 N 6 10.00 A Few Clouds FEW110 69.8 55.4 60% 30.1 0.0
10 12:45 NE 6 10.00 Fair CLR 69.8 55.4 60% 30.1 0.0
10 11:45 N 8 10.00 Fair CLR 71.6 57.2 61% 30.07 0.0
10 09:45 N 6 10.00 Fair CLR 66.2 55.4 68% 30.06 0.0
10 08:45 N 5 10.00 Fair CLR 68 59 73% 30.04 0.0
10 07:45 Calm 10.00 Mostly Cloudy BKN019 64.4 55.4 73% 30.02 0.0
10 06:45 Calm 10.00 Mostly Cloudy BKN019 59 55.4 88% 30 0.0
10 06:15 Calm 10.00 A Few Clouds FEW120 59 53.6 82% 30 0.0
10 05:55 Calm 10.00 Partly Cloudy SCT120 59 53.6 82% 29.99 0.0
10 05:35 Calm 10.00 Fair CLR 59 53.6 82% 29.99 0.0
10 05:15 NW 3 10.00 A Few Clouds FEW120 59 53.6 82% 29.98 0.0
10 04:55 Calm 10.00 Partly Cloudy SCT120 59 53.6 82% 29.97 0.0
10 04:35 Calm 10.00 A Few Clouds FEW110 60.8 53.6 77% 29.95 0.0
10 04:15 Calm 10.00 Mostly Cloudy BKN110 60.8 53.6 77% 29.96 0.0
10 03:55 NW 6 10.00 A Few Clouds FEW120 64.4 55.4 73% 29.96 0.0
10 03:35 S 5 10.00 A Few Clouds FEW120 66.2 57.2 73% 29.95 0.0
10 03:15 S 3 10.00 A Few Clouds FEW120 66.2 55.4 68% 29.94 0.0
10 02:55 S 3 10.00 A Few Clouds FEW120 66.2 55.4 68% 29.94 0.0
10 02:35 S 3 10.00 Fair CLR 66.2 55.4 68% 29.94 0.0
10 02:15 S 3 10.00 Fair CLR 66.2 53.6 64% 29.94 0.0
10 01:55 Calm 10.00 Fair CLR 64.4 53.6 68% 29.94 0.0
10 01:35 S 3 10.00 Fair CLR 66.2 51.8 60% 29.95 0.0
10 01:15 SW 3 10.00 Fair CLR 66.2 48.2 52% 29.95 0.0
10 00:55 S 5 10.00 Fair CLR 68 48.2 49% 29.95 0.0
10 00:35 S 5 10.00 Fair CLR 66.2 46.4 49% 29.95 0.0
10 00:15 Calm 10.00 Fair CLR 64.4 46.4 52% 29.95 0.0
09 23:55 S 3 10.00 Fair CLR 66.2 46.4 49% 29.94 0.0
09 23:35 S 3 10.00 Fair CLR 66.2 44.6 46% 29.94 0.0
09 23:15 S 5 10.00 Fair CLR 66.2 42.8 43% 29.93 0.0
09 22:55 S 5 10.00 Fair CLR 68 42.8 40% 29.93 0.0
09 22:35 S 6 10.00 Fair CLR 68 42.8 40% 29.92 0.0
09 22:15 S 6 10.00 Fair CLR 69.8 41 35% 29.92 0.0
09 21:55 S 6 10.00 Fair CLR 69.8 42.8 38% 29.91 0.0
09 21:35 S 6 10.00 Fair CLR 69.8 42.8 38% 29.9 0.0
09 21:15 S 6 10.00 Fair CLR 69.8 44.6 40% 29.89 0.0
09 20:45 Calm 10.00 Fair CLR 69.8 44.6 40% 29.87 0.0
09 19:45 Calm 10.00 Fair CLR 73.4 51.8 47% 29.86 0.0
09 18:45 Calm 10.00 Fair CLR 77 50 39% 78 29.85 0.0
09 17:45 Calm 10.00 Fair CLR 80.6 46.4 30% 80 29.85 0.0
09 16:45 Calm 10.00 A Few Clouds FEW085 80.6 44.6 28% 79 29.85 0.0
09 15:45 Calm 10.00 Fair CLR 80.6 42.8 26% 79 29.86 0.0
09 14:45 W 5 10.00 Fair CLR 80.6 44.6 28% 79 29.88 0.0
09 13:45 NW 6 10.00 Fair CLR 80.6 42.8 26% 79 29.89 0.0
09 11:45 Calm 10.00 Fair CLR 75.2 53.6 47% 78 29.9 0.0
09 10:45 Calm 10.00 Fair CLR 71.6 55.4 57% 29.9 0.0
09 09:55 Calm 10.00 Fair CLR 68 55.4 64% 29.9 0.0
09 08:45 Calm 10.00 Fair CLR 64.4 55.4 73% 29.89 0.0
09 07:45 SW 6 10.00 Fair CLR 62.6 55.4 77% 29.89 0.0
09 06:45 Calm 10.00 Fair CLR 55.4 53.6 94% 29.86 0.0
09 06:15 Calm 10.00 Fair CLR 55.4 53.6 94% 29.84 0.0
09 05:55 Calm 10.00 Fair CLR 55.4 53.6 94% 29.84 0.0
09 05:35 Calm 10.00 Fair CLR 57.2 53.6 88% 29.84 0.0
09 05:15 Calm 10.00 Fair CLR 57.2 53.6 88% 29.84 0.0
09 04:55 Calm 10.00 Fair CLR 57.2 53.6 88% 29.85 0.0
09 04:35 W 3 10.00 A Few Clouds FEW022 57.2 53.6 88% 29.85 0.0
09 04:15 Calm 10.00 A Few Clouds FEW022 57.2 51.8 82% 29.85 0.0
09 03:55 Calm 10.00 A Few Clouds FEW024 57.2 51.8 82% 29.85 0.0
09 03:35 Calm 10.00 A Few Clouds FEW034 57.2 50 77% 29.86 0.0
09 03:15 Calm 10.00 Mostly Cloudy BKN038 57.2 50 77% 29.85 0.0
09 02:55 Calm 10.00 Partly Cloudy SCT041 57.2 50 77% 29.85 0.0
09 02:35 Calm 10.00 Mostly Cloudy BKN043 57.2 50 77% 29.85 0.0
09 02:15 Calm 10.00 Overcast BKN043 OVC050 57.2 50 77% 29.85 0.0
09 01:55 Calm 10.00 Mostly Cloudy BKN048 57.2 50 77% 29.85 0.0
09 01:35 Calm 10.00 A Few Clouds FEW048 59 48.2 68% 29.85 0.0
09 01:15 Calm 10.00 Fair CLR 59 48.2 68% 29.85 0.0
09 00:55 Calm 10.00 Fair CLR 60.8 48.2 63% 29.86 0.0
09 00:35 Calm 10.00 Fair CLR 60.8 48.2 63% 29.86 0.0
09 00:15 Calm 10.00 Fair CLR 62.6 48.2 60% 29.87 0.0
08 23:55 Calm 10.00 Fair CLR 64.4 48.2 56% 29.87 0.0
08 23:35 W 5 10.00 A Few Clouds FEW085 64.4 48.2 56% 29.87 0.0
08 23:15 W 3 10.00 Mostly Cloudy BKN095 64.4 50 60% 29.87 0.0
08 22:55 W 9 10.00 Mostly Cloudy BKN095 64.4 48.2 56% 29.85 0.0
08 22:35 W 3 10.00 A Few Clouds FEW095 64.4 48.2 56% 29.83 0.0
08 22:15 W 7 10.00 Fair CLR 66.2 48.2 52% 29.82 0.0
08 21:55 SW 7 10.00 Fair CLR 66.2 46.4 49% 29.8 0.0
08 21:35 W 3 10.00 A Few Clouds FEW110 66.2 48.2 52% 29.8 0.0
08 21:15 SW 6 10.00 Mostly Cloudy FEW050 FEW080 BKN110 66.2 50 56% 29.8 0.0
08 20:45 S 7 10.00 Mostly Cloudy FEW034 SCT080 BKN120 66.2 53.6 64% 29.79 0.0
08 19:45 SW 5 10.00 Mostly Cloudy FEW055 BKN100 BKN120 68 50 53% 29.82 0.0
08 18:45 Calm 10.00 Partly Cloudy SCT100 71.6 48.2 44% 29.8 0.0
08 17:45 SW 5 10.00 Fair CLR 75.2 44.6 34% 77 29.8 0.0
08 16:45 Calm 10.00 Fair CLR 77 46.4 34% 78 29.79 0.0
08 15:45 S 3 10.00 Fair CLR 77 48.2 36% 78 29.81 0.0
08 14:45 S 6 10.00 Fair CLR 75.2 46.4 36% 77 29.85 0.0
08 13:45 SW 6 10.00 Fair CLR 73.4 46.4 38% 29.88 0.0
08 12:45 SW 5 10.00 Fair CLR 71.6 48.2 44% 29.9 0.0
08 11:45 SW 7 10.00 Fair CLR 71.6 50 47% 29.93 0.0
08 10:45 S 6 10.00 Fair CLR 68 50 53% 29.96 0.0
08 09:45 Calm 10.00 Fair CLR 66.2 50 56% 29.96 0.0
08 08:45 Calm 10.00 Fair CLR 62.6 50 64% 29.97 0.0
08 07:45 Calm 10.00 Fair CLR 57.2 46.4 67% 29.97 0.0
08 06:45 Calm 10.00 Fair CLR 51.8 42.8 72% 29.97 0.0
08 06:15 Calm 10.00 Fair CLR 51.8 42.8 72% 29.96 0.0
08 05:55 S 5 10.00 Fair CLR 53.6 42.8 67% 29.95 0.0
08 05:35 S 5 10.00 A Few Clouds FEW055 53.6 42.8 67% 29.95 0.0
08 05:15 S 5 10.00 A Few Clouds FEW055 51.8 42.8 72% 29.95 0.0
08 04:55 Calm 10.00 Fair CLR 50 42.8 76% 29.94 0.0
08 04:35 S 6 10.00 Fair CLR 50 42.8 76% 48 29.95 0.0
08 04:15 Calm 10.00 Fair CLR 51.8 42.8 72% 29.95 0.0
08 03:55 S 5 10.00 Fair CLR 51.8 42.8 72% 29.95 0.0
08 03:35 Calm 10.00 Fair CLR 50 42.8 76% 29.96 0.0
08 03:15 Calm 10.00 Fair CLR 50 44.6 82% 29.96 0.0
08 02:55 Calm 10.00 Fair CLR 51.8 42.8 72% 29.97 0.0
08 02:35 Calm 10.00 Fair CLR 53.6 42.8 67% 29.96 0.0
08 02:15 S 3 10.00 Fair CLR 53.6 42.8 67% 29.97 0.0
08 01:55 S 5 10.00 Fair CLR 53.6 44.6 72% 29.98 0.0
08 01:35 Calm 10.00 Fair CLR 53.6 44.6 72% 29.99 0.0
08 01:15 Calm 10.00 Fair CLR 51.8 44.6 77% 30 0.0
08 00:55 Calm 10.00 Fair CLR 51.8 44.6 77% 30 0.0
08 00:35 Calm 10.00 Fair CLR 51.8 42.8 72% 30 0.0
08 00:15 Calm 10.00 Fair CLR 53.6 42.8 67% 30 0.0
07 23:55 Calm 10.00 Fair CLR 53.6 41 63% 30 0.0
07 23:35 Calm 10.00 Fair CLR 51.8 42.8 72% 30.01 0.0
07 23:15 Calm 10.00 Fair CLR 53.6 41 63% 30.01 0.0
07 22:55 Calm 10.00 Fair CLR 53.6 41 63% 30.01 0.0
07 22:35 Calm 10.00 Fair CLR 53.6 41 63% 30.01 0.0
07 22:15 Calm 10.00 Fair CLR 55.4 41 59% 30 0.0
07 21:55 Calm 10.00 Fair CLR 55.4 41 59% 30 0.0
07 21:35 Calm 10.00 Fair CLR 53.6 41 63% 30 0.0
07 21:15 Calm 10.00 Fair CLR 55.4 41 59% 29.99 0.0
07 20:45 Calm 10.00 Fair CLR 53.6 44.6 72% 29.97 0.0
07 19:45 Calm 10.00 Fair CLR 59 41 51% 29.97 0.0
07 18:45 Calm 10.00 Fair CLR 64.4 39.2 40% 29.97 0.0
07 16:45 Calm 10.00 Fair CLR 66.2 37.4 35% 29.99 0.0
07 15:45 SE 3 10.00 Fair CLR 66.2 37.4 35% 30.01 0.0
07 14:45 Calm 10.00 Fair CLR 64.4 35.6 34% 30.03 0.0
Date Time (cdt) Wind (mph) Vis. (mi.) Weather Sky Cond. Air Dwpt Max. Min. Relative Humidity Wind Chill (°F) Heat Index (°F) altimeter (in) sea level (mb) 1 hr 3 hr 6 hr
6 hour
Temperature (ºF) Pressure Precipitation (in)